Wellington, CO

2:12 PM MDT on August 30, 2015 (GMT -0600)
La Luna Dairy | | Change Station
CLOSE
Current Station
Personal Weather Station
Location: Wellington, CO
Elevation: 5250 ft
Nearby Weather Stations

Elev 5250 ft 40.72 °N, 105.02 °W | Updated 4 minutes ago

Clear
Clear
91.0 °F
Feels Like 87 °F
N
10.0
Wind Variable Wind from SSE
Gusts 20.0 mph

Today
High -- | Low -- °F
--% Chance of Precip.
Yesterday
High -- | Low -- °F
Precip. -- in
6:24 AM 7:35 PM
Full, 98% visible
Pressure 29.99 in
Visibility 10.0 miles
Clouds Clear
Heat Index 87 °F
Dew Point 46 °F
Humidity 21%
Rainfall Not available.
Snow Depth Not available.
UV 10 out of 12
Pollen 10.50 out of 12
Air Quality Not available.
Flu Activity Not available.
METAR KFNL 301955Z AUTO 14010KT 10SM CLR 34/04 A2999 RMK AO1
Pressure 29.99 in
Visibility 10.0 miles
Clouds Clear
Heat Index 87 °F
Dew Point 46 °F
Humidity 21%
Rainfall Not available.
Snow Depth Not available.
UV 10 out of 12
Pollen 10.50 out of 12
Air Quality Not available.
Flu Activity Not available.
METAR KFNL 301955Z AUTO 14010KT 10SM CLR 34/04 A2999 RMK AO1

10-Day Weather Forecast

×

Almanac

Astronomy

Aug. 30, 2015 Rise Set
Actual Time
Civil Twilight
Nautical Twilight
Astronomical Twilight
Moon
Length of Visible Light
Length of Day
Tomorrow will be .
, % of the Moon is Illuminated

Today's Extremes

State Highs State Lows

Community

WunderPhotos

Upload Photos

1,851,048 photos uploaded!

WunderBlogs® & News

Nearby

Air Quality

  Air Quality AQ Index Pollutant
Not available.

Snow Depth

Station Depth Elevation

Earthquake Activity

City Distance Mag. Time & Date
Minimum magnitude displayed is 2.5.

Coastal Water Temperatures

Place Temperature

Stations

Nearby Weather Stations

Station Location Temp. Windchill Dew Point Humidity Wind Precip. Elev Updated Type